N700PB KMDW-KMSP
Flight info
| Callsign | N700PB |
|---|---|
| Flight time | 1h 1m |
| Altitude | 43000 |
| Route | PMPKN NEATO DLLAN RONIC KAMMA KKILR4 |
| Aircraft | C700/M-SBDGHM1RWXY/LB2 |
Departure
| Time | 2026-05-04 18:45 |
|---|---|
| Airport | Chicago Midway International Airport (KMDW) |
Arrival
| Time | 2026-05-04 19:46 |
|---|---|
| Airport | Minneapolis–Saint Paul International Airport / Wold–Chamberlain Field (KMSP) |
| Time | Latitude | Longitude | Altitude | Speed | Heading |
|---|---|---|---|---|---|
| 2026-05-04 18:33 | 41.79051 | -87.74256 | 609 ft | 0 kts | 44° |
| 2026-05-04 18:43 | 41.79068 | -87.74236 | 611 ft | 9 kts | 39° |
| 2026-05-04 18:43 | 41.79131 | -87.74212 | 610 ft | 9 kts | 346° |
| 2026-05-04 18:43 | 41.79169 | -87.74274 | 619 ft | 0 kts | 308° |
| 2026-05-04 18:44 | 41.79174 | -87.74281 | 619 ft | 4 kts | 308° |
| 2026-05-04 18:44 | 41.79179 | -87.74320 | 609 ft | 9 kts | 259° |
| 2026-05-04 18:44 | 41.79067 | -87.74477 | 615 ft | 30 kts | 224° |
| 2026-05-04 18:44 | 41.78779 | -87.74843 | 618 ft | 88 kts | 224° |
| 2026-05-04 18:45 | 41.78176 | -87.75607 | 628 ft | 151 kts | 223° |
| 2026-05-04 18:45 | 41.77356 | -87.76663 | 1421 ft | 157 kts | 226° |
| 2026-05-04 18:45 | 41.76753 | -87.77992 | 2388 ft | 181 kts | 262° |
| 2026-05-04 18:45 | 41.77141 | -87.79606 | 2646 ft | 195 kts | 308° |
| 2026-05-04 18:46 | 41.78379 | -87.80319 | 2644 ft | 203 kts | 358° |
| 2026-05-04 18:46 | 41.79648 | -87.79595 | 2634 ft | 202 kts | 48° |
| 2026-05-04 18:46 | 41.80459 | -87.78110 | 2626 ft | 194 kts | 39° |
| 2026-05-04 18:46 | 41.81632 | -87.77598 | 2614 ft | 173 kts | 346° |
| 2026-05-04 18:47 | 41.83006 | -87.78096 | 2098 ft | 228 kts | 338° |
| 2026-05-04 18:47 | 41.84567 | -87.78693 | 2058 ft | 237 kts | 339° |
| 2026-05-04 18:47 | 41.86165 | -87.79297 | 2022 ft | 241 kts | 340° |
| 2026-05-04 18:47 | 41.87783 | -87.79910 | 2055 ft | 244 kts | 340° |
| 2026-05-04 18:48 | 41.89422 | -87.80525 | 2092 ft | 246 kts | 340° |
| 2026-05-04 18:48 | 41.91077 | -87.81151 | 2104 ft | 248 kts | 339° |
| 2026-05-04 18:48 | 41.92742 | -87.81778 | 2158 ft | 249 kts | 340° |
| 2026-05-04 18:48 | 41.94404 | -87.82403 | 2220 ft | 250 kts | 339° |
| 2026-05-04 18:49 | 41.96089 | -87.83031 | 2230 ft | 250 kts | 340° |
| 2026-05-04 18:49 | 41.97766 | -87.83655 | 2318 ft | 251 kts | 340° |
| 2026-05-04 18:49 | 41.99453 | -87.84283 | 2407 ft | 251 kts | 339° |
| 2026-05-04 18:49 | 42.01145 | -87.84917 | 2454 ft | 252 kts | 340° |
| 2026-05-04 18:50 | 42.02832 | -87.85550 | 2572 ft | 252 kts | 340° |
| 2026-05-04 18:50 | 42.04520 | -87.86179 | 2639 ft | 252 kts | 339° |
| 2026-05-04 18:50 | 42.06189 | -87.86805 | 2726 ft | 252 kts | 340° |
| 2026-05-04 18:50 | 42.07880 | -87.87442 | 2755 ft | 251 kts | 339° |
| 2026-05-04 18:51 | 42.09553 | -87.88061 | 2794 ft | 248 kts | 340° |
| 2026-05-04 18:51 | 42.11216 | -87.88672 | 2880 ft | 247 kts | 339° |
| 2026-05-04 18:51 | 42.12866 | -87.89275 | 2906 ft | 245 kts | 339° |
| 2026-05-04 18:51 | 42.14510 | -87.89872 | 2882 ft | 245 kts | 339° |
| 2026-05-04 18:52 | 42.16154 | -87.90468 | 2849 ft | 244 kts | 339° |
| 2026-05-04 18:52 | 42.17787 | -87.91065 | 2846 ft | 244 kts | 339° |
| 2026-05-04 18:52 | 42.19426 | -87.91661 | 2846 ft | 243 kts | 339° |
| 2026-05-04 18:52 | 42.21061 | -87.92261 | 2861 ft | 243 kts | 339° |
| 2026-05-04 18:53 | 42.22696 | -87.92856 | 2875 ft | 243 kts | 339° |
| 2026-05-04 18:53 | 42.24331 | -87.93444 | 2961 ft | 242 kts | 339° |
| 2026-05-04 18:53 | 42.25957 | -87.94039 | 2958 ft | 243 kts | 339° |
| 2026-05-04 18:53 | 42.27586 | -87.94636 | 2924 ft | 243 kts | 339° |
| 2026-05-04 18:54 | 42.29296 | -87.95282 | 3258 ft | 273 kts | 339° |
| 2026-05-04 18:54 | 42.31113 | -87.95975 | 4688 ft | 272 kts | 339° |
| 2026-05-04 18:54 | 42.32907 | -87.96648 | 6341 ft | 263 kts | 339° |
| 2026-05-04 18:54 | 42.34685 | -87.97318 | 7647 ft | 270 kts | 339° |
| 2026-05-04 18:55 | 42.36512 | -87.98013 | 8908 ft | 275 kts | 339° |
| 2026-05-04 18:55 | 42.40370 | -87.99517 | 10873 ft | 308 kts | 338° |
| 2026-05-04 18:55 | 42.42436 | -88.00343 | 12221 ft | 311 kts | 337° |
| 2026-05-04 18:56 | 42.44529 | -88.01184 | 13501 ft | 317 kts | 336° |
| 2026-05-04 18:56 | 42.46662 | -88.02052 | 14599 ft | 323 kts | 336° |
| 2026-05-04 18:56 | 42.48832 | -88.02940 | 15721 ft | 328 kts | 336° |
| 2026-05-04 18:56 | 42.51029 | -88.03847 | 16826 ft | 333 kts | 336° |
| 2026-05-04 18:57 | 42.53267 | -88.04776 | 17935 ft | 338 kts | 336° |
| 2026-05-04 18:57 | 42.55503 | -88.05710 | 18848 ft | 343 kts | 336° |
| 2026-05-04 18:57 | 42.57798 | -88.06675 | 19718 ft | 348 kts | 336° |
| 2026-05-04 18:57 | 42.60122 | -88.07658 | 20542 ft | 352 kts | 336° |
| 2026-05-04 18:58 | 42.62476 | -88.08659 | 21352 ft | 357 kts | 335° |
| 2026-05-04 18:58 | 42.64856 | -88.09677 | 22160 ft | 361 kts | 335° |
| 2026-05-04 18:58 | 42.67267 | -88.10714 | 22941 ft | 365 kts | 335° |
| 2026-05-04 18:58 | 42.69702 | -88.11766 | 23646 ft | 369 kts | 335° |
| 2026-05-04 18:59 | 42.72161 | -88.12835 | 24338 ft | 372 kts | 335° |
| 2026-05-04 18:59 | 42.74641 | -88.13916 | 25024 ft | 375 kts | 335° |
| 2026-05-04 18:59 | 42.77139 | -88.15009 | 25700 ft | 378 kts | 335° |
| 2026-05-04 18:59 | 42.79653 | -88.16113 | 26370 ft | 381 kts | 335° |
| 2026-05-04 19:00 | 42.82187 | -88.17229 | 27020 ft | 384 kts | 335° |
| 2026-05-04 19:00 | 42.83879 | -88.17976 | 27452 ft | 386 kts | 335° |
| 2026-05-04 19:00 | 42.87281 | -88.19483 | 28307 ft | 390 kts | 335° |
| 2026-05-04 19:00 | 42.89872 | -88.20636 | 28923 ft | 393 kts | 335° |
| 2026-05-04 19:01 | 42.92480 | -88.21801 | 29568 ft | 396 kts | 335° |
| 2026-05-04 19:01 | 42.95106 | -88.22977 | 30106 ft | 399 kts | 335° |
| 2026-05-04 19:01 | 42.97752 | -88.24166 | 30603 ft | 402 kts | 335° |
| 2026-05-04 19:01 | 43.00418 | -88.25368 | 31098 ft | 404 kts | 335° |
| 2026-05-04 19:02 | 43.02231 | -88.26187 | 31421 ft | 406 kts | 335° |
| 2026-05-04 19:02 | 43.04887 | -88.27392 | 31865 ft | 409 kts | 335° |
| 2026-05-04 19:02 | 43.07598 | -88.28625 | 32299 ft | 412 kts | 335° |
| 2026-05-04 19:02 | 43.10336 | -88.29877 | 32578 ft | 419 kts | 334° |
| 2026-05-04 19:03 | 43.15405 | -88.33734 | 32580 ft | 422 kts | 309° |
| 2026-05-04 19:03 | 43.18950 | -88.40281 | 32578 ft | 434 kts | 300° |
| 2026-05-04 19:04 | 43.22449 | -88.47062 | 32569 ft | 437 kts | 305° |
| 2026-05-04 19:04 | 43.26403 | -88.53381 | 32554 ft | 434 kts | 304° |
| 2026-05-04 19:05 | 43.30090 | -88.59952 | 32554 ft | 436 kts | 304° |
| 2026-05-04 19:05 | 43.33909 | -88.66383 | 32558 ft | 437 kts | 304° |
| 2026-05-04 19:06 | 43.37666 | -88.72922 | 32559 ft | 434 kts | 303° |
| 2026-05-04 19:06 | 43.41435 | -88.79397 | 32560 ft | 433 kts | 304° |
| 2026-05-04 19:07 | 43.45171 | -88.85878 | 32553 ft | 432 kts | 303° |
| 2026-05-04 19:07 | 43.48924 | -88.92382 | 32553 ft | 434 kts | 303° |
| 2026-05-04 19:08 | 43.52685 | -88.98919 | 32536 ft | 435 kts | 303° |
| 2026-05-04 19:08 | 43.56405 | -89.05398 | 32530 ft | 432 kts | 303° |
| 2026-05-04 19:09 | 43.60123 | -89.11889 | 32509 ft | 430 kts | 303° |
| 2026-05-04 19:09 | 43.63832 | -89.18381 | 32512 ft | 431 kts | 303° |
| 2026-05-04 19:10 | 43.67554 | -89.24905 | 32504 ft | 433 kts | 303° |
| 2026-05-04 19:10 | 43.71268 | -89.31434 | 32504 ft | 430 kts | 303° |
| 2026-05-04 19:11 | 43.74942 | -89.37907 | 32500 ft | 427 kts | 302° |
| 2026-05-04 19:11 | 43.78617 | -89.44398 | 32499 ft | 430 kts | 302° |
| 2026-05-04 19:12 | 43.84136 | -89.54166 | 32500 ft | 427 kts | 302° |
| 2026-05-04 19:13 | 43.87779 | -89.60634 | 32504 ft | 425 kts | 302° |
| 2026-05-04 19:13 | 43.91419 | -89.67113 | 32498 ft | 427 kts | 302° |
| 2026-05-04 19:14 | 43.95042 | -89.73572 | 32496 ft | 426 kts | 302° |
| 2026-05-04 19:14 | 43.98662 | -89.80042 | 32505 ft | 423 kts | 302° |
| 2026-05-04 19:15 | 44.02253 | -89.86475 | 32510 ft | 421 kts | 302° |
| 2026-05-04 19:15 | 44.05844 | -89.92925 | 32512 ft | 422 kts | 302° |
| 2026-05-04 19:16 | 44.09513 | -89.99346 | 32513 ft | 425 kts | 303° |
| 2026-05-04 19:16 | 44.13250 | -90.05701 | 32509 ft | 421 kts | 303° |
| 2026-05-04 19:17 | 44.16935 | -90.12013 | 32513 ft | 419 kts | 303° |
| 2026-05-04 19:17 | 44.20622 | -90.18327 | 32511 ft | 421 kts | 303° |
| 2026-05-04 19:18 | 44.24298 | -90.24641 | 32511 ft | 422 kts | 303° |
| 2026-05-04 19:18 | 44.27985 | -90.30983 | 32513 ft | 419 kts | 303° |
| 2026-05-04 19:19 | 44.31638 | -90.37285 | 32512 ft | 416 kts | 303° |
| 2026-05-04 19:19 | 44.34924 | -90.43890 | 32526 ft | 412 kts | 294° |
| 2026-05-04 19:20 | 44.37268 | -90.51157 | 32533 ft | 409 kts | 288° |
| 2026-05-04 19:20 | 44.39450 | -90.58477 | 32538 ft | 407 kts | 288° |
| 2026-05-04 19:21 | 44.41595 | -90.65772 | 32545 ft | 404 kts | 288° |
| 2026-05-04 19:21 | 44.43735 | -90.73007 | 32547 ft | 406 kts | 288° |
| 2026-05-04 19:22 | 44.45901 | -90.80335 | 32550 ft | 408 kts | 288° |
| 2026-05-04 19:22 | 44.48055 | -90.87648 | 31994 ft | 399 kts | 288° |
| 2026-05-04 19:22 | 44.49100 | -90.91197 | 31478 ft | 388 kts | 288° |
| 2026-05-04 19:23 | 44.50113 | -90.94656 | 30970 ft | 380 kts | 288° |
| 2026-05-04 19:23 | 44.51111 | -90.98074 | 30473 ft | 381 kts | 288° |
| 2026-05-04 19:23 | 44.52126 | -91.01554 | 29964 ft | 391 kts | 288° |
| 2026-05-04 19:23 | 44.53165 | -91.05111 | 29423 ft | 396 kts | 288° |
| 2026-05-04 19:24 | 44.54193 | -91.08615 | 28897 ft | 390 kts | 288° |
| 2026-05-04 19:24 | 44.55215 | -91.12112 | 28383 ft | 383 kts | 288° |
| 2026-05-04 19:24 | 44.56210 | -91.15546 | 27882 ft | 377 kts | 288° |
| 2026-05-04 19:24 | 44.57197 | -91.18949 | 27390 ft | 375 kts | 288° |
| 2026-05-04 19:25 | 44.58179 | -91.22331 | 26899 ft | 374 kts | 288° |
| 2026-05-04 19:25 | 44.59156 | -91.25703 | 26412 ft | 373 kts | 288° |
| 2026-05-04 19:25 | 44.60128 | -91.29061 | 25921 ft | 370 kts | 288° |
| 2026-05-04 19:25 | 44.61090 | -91.32389 | 25436 ft | 366 kts | 288° |
| 2026-05-04 19:26 | 44.62039 | -91.35676 | 24960 ft | 362 kts | 288° |
| 2026-05-04 19:26 | 44.62980 | -91.38939 | 24485 ft | 359 kts | 288° |
| 2026-05-04 19:26 | 44.63917 | -91.42175 | 24016 ft | 356 kts | 288° |
| 2026-05-04 19:26 | 44.64843 | -91.45384 | 23541 ft | 353 kts | 288° |
| 2026-05-04 19:27 | 44.65748 | -91.48538 | 23084 ft | 351 kts | 288° |
| 2026-05-04 19:27 | 44.66661 | -91.51709 | 22596 ft | 348 kts | 288° |
| 2026-05-04 19:27 | 44.67565 | -91.54850 | 22140 ft | 345 kts | 288° |
| 2026-05-04 19:27 | 44.68465 | -91.57990 | 21675 ft | 345 kts | 288° |
| 2026-05-04 19:28 | 44.69357 | -91.61110 | 21230 ft | 344 kts | 288° |
| 2026-05-04 19:28 | 44.70250 | -91.64228 | 20774 ft | 343 kts | 288° |
| 2026-05-04 19:28 | 44.71138 | -91.67332 | 20323 ft | 341 kts | 288° |
| 2026-05-04 19:28 | 44.72019 | -91.70419 | 19893 ft | 340 kts | 288° |
| 2026-05-04 19:29 | 44.72895 | -91.73496 | 19447 ft | 338 kts | 288° |
| 2026-05-04 19:29 | 44.73768 | -91.76558 | 19005 ft | 336 kts | 288° |
| 2026-05-04 19:29 | 44.74636 | -91.79609 | 18555 ft | 331 kts | 288° |
| 2026-05-04 19:29 | 44.75464 | -91.82513 | 18145 ft | 317 kts | 287° |
| 2026-05-04 19:30 | 44.76266 | -91.85336 | 17720 ft | 304 kts | 287° |
| 2026-05-04 19:30 | 44.77036 | -91.88067 | 17317 ft | 297 kts | 287° |
| 2026-05-04 19:30 | 44.77775 | -91.90768 | 16921 ft | 296 kts | 286° |
| 2026-05-04 19:30 | 44.78497 | -91.93475 | 16750 ft | 293 kts | 286° |
| 2026-05-04 19:31 | 44.79232 | -91.96185 | 16552 ft | 301 kts | 287° |
| 2026-05-04 19:31 | 44.79987 | -91.98964 | 16162 ft | 303 kts | 287° |
| 2026-05-04 19:31 | 44.80739 | -92.01714 | 15767 ft | 298 kts | 287° |
| 2026-05-04 19:31 | 44.81472 | -92.04421 | 15369 ft | 293 kts | 286° |
| 2026-05-04 19:32 | 44.82189 | -92.07084 | 14985 ft | 289 kts | 286° |
| 2026-05-04 19:32 | 44.82903 | -92.09724 | 14603 ft | 287 kts | 286° |
| 2026-05-04 19:32 | 44.83614 | -92.12356 | 14228 ft | 287 kts | 286° |
| 2026-05-04 19:32 | 44.84323 | -92.14989 | 13850 ft | 288 kts | 286° |
| 2026-05-04 19:33 | 44.84981 | -92.17645 | 13468 ft | 285 kts | 282° |
| 2026-05-04 19:33 | 44.85373 | -92.20326 | 13075 ft | 280 kts | 276° |
| 2026-05-04 19:33 | 44.85553 | -92.23047 | 12699 ft | 277 kts | 273° |
| 2026-05-04 19:33 | 44.85716 | -92.25747 | 12353 ft | 276 kts | 274° |
| 2026-05-04 19:34 | 44.85891 | -92.28437 | 11971 ft | 275 kts | 274° |
| 2026-05-04 19:34 | 44.86055 | -92.31116 | 11617 ft | 274 kts | 274° |
| 2026-05-04 19:34 | 44.86210 | -92.33792 | 11260 ft | 273 kts | 274° |
| 2026-05-04 19:34 | 44.86336 | -92.36466 | 10897 ft | 273 kts | 274° |
| 2026-05-04 19:35 | 44.86456 | -92.39130 | 10543 ft | 272 kts | 274° |
| 2026-05-04 19:35 | 44.86586 | -92.41785 | 10183 ft | 271 kts | 275° |
| 2026-05-04 19:35 | 44.86710 | -92.44425 | 9829 ft | 269 kts | 273° |
| 2026-05-04 19:35 | 44.86610 | -92.47062 | 9473 ft | 269 kts | 266° |
| 2026-05-04 19:36 | 44.86251 | -92.49647 | 9098 ft | 270 kts | 259° |
| 2026-05-04 19:36 | 44.85624 | -92.52168 | 8747 ft | 276 kts | 252° |
| 2026-05-04 19:36 | 44.84761 | -92.54565 | 8384 ft | 269 kts | 248° |
| 2026-05-04 19:36 | 44.83925 | -92.56843 | 8039 ft | 260 kts | 249° |
| 2026-05-04 19:37 | 44.83116 | -92.59087 | 7702 ft | 252 kts | 248° |
| 2026-05-04 19:37 | 44.82324 | -92.61257 | 7374 ft | 246 kts | 248° |
| 2026-05-04 19:37 | 44.81546 | -92.63374 | 7056 ft | 240 kts | 248° |
| 2026-05-04 19:37 | 44.80797 | -92.65402 | 7007 ft | 225 kts | 248° |
| 2026-05-04 19:38 | 44.80102 | -92.67297 | 7003 ft | 211 kts | 249° |
| 2026-05-04 19:38 | 44.79455 | -92.69064 | 7011 ft | 200 kts | 249° |
| 2026-05-04 19:38 | 44.78813 | -92.70815 | 7017 ft | 199 kts | 249° |
| 2026-05-04 19:38 | 44.78179 | -92.72558 | 7020 ft | 206 kts | 249° |
| 2026-05-04 19:39 | 44.77510 | -92.74384 | 7015 ft | 207 kts | 251° |
| 2026-05-04 19:39 | 44.77090 | -92.76276 | 7034 ft | 201 kts | 263° |
| 2026-05-04 19:39 | 44.76941 | -92.78210 | 7021 ft | 198 kts | 270° |
| 2026-05-04 19:39 | 44.76847 | -92.80162 | 6896 ft | 204 kts | 268° |
| 2026-05-04 19:40 | 44.76728 | -92.82157 | 6638 ft | 204 kts | 268° |
| 2026-05-04 19:40 | 44.76621 | -92.84117 | 6374 ft | 204 kts | 268° |
| 2026-05-04 19:40 | 44.76512 | -92.86117 | 6102 ft | 205 kts | 269° |
| 2026-05-04 19:40 | 44.76403 | -92.88126 | 5818 ft | 206 kts | 269° |
| 2026-05-04 19:41 | 44.76297 | -92.90136 | 5544 ft | 205 kts | 269° |
| 2026-05-04 19:41 | 44.76198 | -92.92135 | 5280 ft | 204 kts | 271° |
| 2026-05-04 19:41 | 44.76372 | -92.94102 | 5011 ft | 202 kts | 285° |
| 2026-05-04 19:41 | 44.76853 | -92.95956 | 4735 ft | 202 kts | 297° |
| 2026-05-04 19:42 | 44.77586 | -92.97636 | 4457 ft | 202 kts | 301° |
| 2026-05-04 19:42 | 44.78309 | -92.99309 | 4221 ft | 192 kts | 300° |
| 2026-05-04 19:42 | 44.78949 | -93.00799 | 3975 ft | 163 kts | 300° |
| 2026-05-04 19:42 | 44.79506 | -93.02058 | 3787 ft | 144 kts | 301° |
| 2026-05-04 19:43 | 44.80017 | -93.03236 | 3588 ft | 140 kts | 300° |
| 2026-05-04 19:43 | 44.80532 | -93.04420 | 3407 ft | 143 kts | 301° |
| 2026-05-04 19:43 | 44.81051 | -93.05609 | 3212 ft | 138 kts | 300° |
| 2026-05-04 19:43 | 44.81520 | -93.06685 | 3032 ft | 124 kts | 300° |
| 2026-05-04 19:44 | 44.81948 | -93.07672 | 2853 ft | 113 kts | 301° |
| 2026-05-04 19:44 | 44.82351 | -93.08579 | 2696 ft | 107 kts | 301° |
| 2026-05-04 19:44 | 44.82886 | -93.09826 | 1727 ft | 184 kts | 299° |
| 2026-05-04 19:44 | 44.83542 | -93.11397 | 1580 ft | 186 kts | 299° |
| 2026-05-04 19:45 | 44.84198 | -93.12960 | 1450 ft | 185 kts | 300° |
| 2026-05-04 19:45 | 44.84853 | -93.14525 | 1313 ft | 185 kts | 300° |
| 2026-05-04 19:45 | 44.85501 | -93.16085 | 1179 ft | 184 kts | 301° |
| 2026-05-04 19:45 | 44.86149 | -93.17637 | 1084 ft | 183 kts | 303° |
| 2026-05-04 19:46 | 44.86884 | -93.19083 | 939 ft | 180 kts | 305° |
| 2026-05-04 19:46 | 44.87546 | -93.20564 | 820 ft | 175 kts | 302° |
| 2026-05-04 19:46 | 44.87978 | -93.21554 | 823 ft | 37 kts | 300° |
| 2026-05-04 19:46 | 44.87952 | -93.21741 | 830 ft | 13 kts | 163° |
| 2026-05-04 19:47 | 44.87883 | -93.21643 | 827 ft | 16 kts | 123° |
| 2026-05-04 19:47 | 44.87816 | -93.21658 | 825 ft | 12 kts | 280° |
| 2026-05-04 19:47 | 44.87812 | -93.21772 | 828 ft | 11 kts | 236° |
| 2026-05-04 19:47 | 44.87761 | -93.21814 | 829 ft | 9 kts | 242° |
| 2026-05-04 19:48 | 44.87759 | -93.21864 | 830 ft | 4 kts | 308° |
| 2026-05-04 19:48 | 44.87775 | -93.21864 | 828 ft | 0 kts | 352° |